createdAt,value
2022-08-20T00:03:53.507Z,33.97
2022-08-20T00:08:55.941Z,31.13
2022-08-20T00:14:01.057Z,30.00
2022-08-20T00:19:07.150Z,30.97
2022-08-20T00:24:09.544Z,31.77
2022-08-20T00:29:11.928Z,31.77
2022-08-20T00:34:16.333Z,28.70
2022-08-20T00:39:18.725Z,29.67
2022-08-20T00:44:22.798Z,29.17
2022-08-20T00:49:31.499Z,29.50
2022-08-20T00:54:47.207Z,29.30
2022-08-20T00:59:50.678Z,29.40
2022-08-20T01:04:54.733Z,29.37
2022-08-20T01:09:58.366Z,30.03
2022-08-20T01:15:04.881Z,30.40
2022-08-20T01:20:19.047Z,32.63
2022-08-20T01:25:30.749Z,32.40
2022-08-20T01:30:34.499Z,33.40
2022-08-20T01:35:41.973Z,32.13
2022-08-20T01:41:28.189Z,32.67
2022-08-20T01:46:36.731Z,31.77
2022-08-20T01:51:42.668Z,32.70
2022-08-20T01:57:11.878Z,34.07
2022-08-20T02:02:14.259Z,33.03
2022-08-20T02:07:19.723Z,33.20
2022-08-20T02:12:22.130Z,33.30
2022-08-20T02:17:25.906Z,32.83
2022-08-20T02:22:40.701Z,32.53
2022-08-20T02:27:48.848Z,32.10
2022-08-20T02:32:51.363Z,31.93
2022-08-20T02:37:58.871Z,33.93
2022-08-20T02:43:02.497Z,33.80
2022-08-20T02:48:05.445Z,33.43
2022-08-20T02:53:07.831Z,34.17
2022-08-20T02:58:10.395Z,33.57
2022-08-20T03:03:14.613Z,32.30
2022-08-20T03:08:17.582Z,34.77
2022-08-20T03:13:21.624Z,34.53
2022-08-20T03:18:26.820Z,32.47
2022-08-20T03:23:29.244Z,31.50
2022-08-20T03:28:31.930Z,33.90
2022-08-20T03:33:34.579Z,32.20
2022-08-20T03:38:36.957Z,32.23
2022-08-20T03:43:41.077Z,31.20
2022-08-20T03:48:43.467Z,32.03
2022-08-20T03:53:45.828Z,32.43
2022-08-20T03:58:48.206Z,31.43
2022-08-20T04:03:55.002Z,33.33
2022-08-20T04:08:57.865Z,34.03
2022-08-20T04:14:00.229Z,31.77
2022-08-20T04:19:04.532Z,31.47
2022-08-20T04:24:07.103Z,31.30
2022-08-20T04:29:09.478Z,32.23
2022-08-20T04:34:11.906Z,31.77
2022-08-20T04:39:18.284Z,32.83
2022-08-20T04:44:21.820Z,32.27
2022-08-20T04:49:26.550Z,33.13
2022-08-20T04:54:29.121Z,33.47
2022-08-20T04:59:31.542Z,32.20
2022-08-20T05:04:34.627Z,33.33
2022-08-20T05:09:43.794Z,31.63
2022-08-20T05:14:47.205Z,33.07
2022-08-20T05:19:51.967Z,32.00
2022-08-20T05:24:56.986Z,30.63
2022-08-20T05:30:13.531Z,30.47
2022-08-20T05:35:16.119Z,29.90
2022-08-20T05:40:18.582Z,29.27
2022-08-20T05:45:21.593Z,29.27
2022-08-20T05:50:24.218Z,29.23
2022-08-20T05:55:26.616Z,30.27
2022-08-20T06:00:30.324Z,28.93
2022-08-20T06:05:32.675Z,29.10
2022-08-20T06:10:36.893Z,28.80
2022-08-20T06:15:40.120Z,27.93
2022-08-20T06:20:42.618Z,27.53
2022-08-20T06:25:45.934Z,30.97
2022-08-20T06:30:48.355Z,29.50
2022-08-20T06:35:50.720Z,31.63
2022-08-20T06:40:53.049Z,31.20
2022-08-20T06:45:57.712Z,31.80
2022-08-20T06:51:00.144Z,30.37
2022-08-20T06:56:02.564Z,30.83
2022-08-20T07:01:09.751Z,31.23
2022-08-20T07:06:12.893Z,29.03
2022-08-20T07:11:15.232Z,28.73
2022-08-20T07:16:17.580Z,30.73
2022-08-20T07:21:19.943Z,29.60
2022-08-20T07:26:23.380Z,30.43
2022-08-20T07:31:44.617Z,31.13
2022-08-20T07:36:50.898Z,29.30
2022-08-20T07:42:03.260Z,30.53
2022-08-20T07:47:06.526Z,30.00
2022-08-20T07:52:08.921Z,29.97
2022-08-20T07:57:12.124Z,31.23
2022-08-20T08:02:14.893Z,30.43
2022-08-20T08:07:17.647Z,29.03
2022-08-20T08:12:21.353Z,29.93
2022-08-20T08:17:23.782Z,29.77
2022-08-20T08:22:26.421Z,30.67
2022-08-20T08:27:33.631Z,29.77
2022-08-20T08:32:37.777Z,28.40
2022-08-20T08:37:40.157Z,26.70
2022-08-20T08:42:46.079Z,24.27
2022-08-20T08:47:49.017Z,25.90
2022-08-20T08:53:00.464Z,24.50
2022-08-20T08:58:04.370Z,24.60
2022-08-20T09:03:29.329Z,24.73
2022-08-20T09:08:43.545Z,24.33
2022-08-20T09:13:46.026Z,23.67
2022-08-20T09:18:48.822Z,24.43
2022-08-20T09:23:51.209Z,23.30
2022-08-20T09:28:53.884Z,23.40
2022-08-20T09:33:56.278Z,23.00
2022-08-20T09:38:58.620Z,22.80
2022-08-20T09:44:00.994Z,22.77
2022-08-20T09:49:03.539Z,22.67
2022-08-20T09:54:06.181Z,21.63
2022-08-20T09:59:08.670Z,22.80
2022-08-20T10:04:11.060Z,24.60
2022-08-20T10:09:13.763Z,22.13
2022-08-20T10:14:16.101Z,22.67
2022-08-20T10:19:18.443Z,22.10
2022-08-20T10:24:21.741Z,20.30
2022-08-20T10:29:25.052Z,20.47
2022-08-20T10:34:27.419Z,22.40
2022-08-20T10:39:31.531Z,20.80
2022-08-20T10:44:34.098Z,20.40
2022-08-20T10:49:36.434Z,20.43
2022-08-20T10:54:42.214Z,19.70
2022-08-20T10:59:47.462Z,21.40
2022-08-20T11:04:50.850Z,18.90
2022-08-20T11:09:53.274Z,19.27
2022-08-20T11:14:56.246Z,19.35
2022-08-20T11:19:59.812Z,19.13
2022-08-20T11:25:03.598Z,19.02
2022-08-20T11:30:09.518Z,20.33
2022-08-20T11:35:41.155Z,20.20
2022-08-20T11:40:34.721Z,19.60
2022-08-20T11:45:37.741Z,19.77
2022-08-20T11:50:41.538Z,19.58
2022-08-20T11:55:44.577Z,19.05
2022-08-20T12:00:47.014Z,19.55
2022-08-20T12:05:49.360Z,18.67
2022-08-20T12:10:51.804Z,20.02
2022-08-20T12:15:54.636Z,17.55
2022-08-20T12:20:56.994Z,19.17
2022-08-20T12:26:02.912Z,19.13
2022-08-20T12:31:05.744Z,18.65
2022-08-20T12:36:08.459Z,18.05
2022-08-20T12:41:10.860Z,19.50
2022-08-20T12:46:13.199Z,19.30
2022-08-20T12:51:15.540Z,19.75
2022-08-20T12:56:17.958Z,20.30
2022-08-20T13:01:20.359Z,19.48
2022-08-20T13:06:22.916Z,18.90
2022-08-20T13:11:25.267Z,17.38
2022-08-20T13:16:27.784Z,17.50
2022-08-20T13:21:30.150Z,16.88
2022-08-20T13:26:32.473Z,17.50
2022-08-20T13:31:34.779Z,18.73
2022-08-20T13:36:37.663Z,19.77
2022-08-20T13:41:40.017Z,18.13
2022-08-20T13:46:42.387Z,19.92
2022-08-20T13:51:44.727Z,19.98
2022-08-20T13:56:47.213Z,19.38
2022-08-20T14:01:49.650Z,19.77
2022-08-20T14:06:52.084Z,18.60
2022-08-20T14:11:54.415Z,17.83
2022-08-20T14:16:56.760Z,17.73
2022-08-20T14:21:59.127Z,17.95
2022-08-20T14:27:04.795Z,16.90
2022-08-20T14:32:09.354Z,18.80
2022-08-20T14:37:19.331Z,17.85
2022-08-20T14:42:23.003Z,18.60
2022-08-20T14:47:28.286Z,18.77
2022-08-20T14:52:31.447Z,18.42
2022-08-20T14:57:33.945Z,17.83
2022-08-20T15:02:37.288Z,17.77
2022-08-20T15:07:42.866Z,18.15
2022-08-20T15:12:45.310Z,16.83
2022-08-20T15:17:50.980Z,17.08
2022-08-20T15:22:54.137Z,18.65
2022-08-20T15:28:00.826Z,18.90
2022-08-20T15:33:04.928Z,19.07
2022-08-20T15:38:07.629Z,18.53
2022-08-20T15:43:09.996Z,17.87
2022-08-20T15:48:16.103Z,13.37
2022-08-20T15:53:37.627Z,7.70
2022-08-20T15:59:04.329Z,5.00
2022-08-20T16:04:32.554Z,3.00
2022-08-20T16:09:51.444Z,2.73
2022-08-20T16:15:00.475Z,2.97
2022-08-20T16:20:10.084Z,2.67
2022-08-20T16:25:15.011Z,4.20
2022-08-20T16:30:44.946Z,6.23
2022-08-20T16:36:30.719Z,15.57
2022-08-20T16:41:45.222Z,21.67
2022-08-20T16:46:53.282Z,25.60
2022-08-20T16:51:55.686Z,25.60
2022-08-20T16:57:02.730Z,1.33
2022-08-20T17:02:10.842Z,1.53
2022-08-20T17:07:13.544Z,0.37
2022-08-20T17:12:28.414Z,1.80
2022-08-20T17:17:38.290Z,1.17
2022-08-20T17:22:44.867Z,0.87
2022-08-20T17:27:47.702Z,1.00
2022-08-20T17:32:59.832Z,0.57
2022-08-20T17:38:04.689Z,0.30
2022-08-20T17:43:09.787Z,1.17
2022-08-20T17:48:36.430Z,0.10
2022-08-20T17:53:42.630Z,1.20
2022-08-20T17:58:55.003Z,0.17
2022-08-20T18:03:58.431Z,0.60
2022-08-20T18:09:13.868Z,0.40
2022-08-20T18:14:22.492Z,0.30
2022-08-20T18:19:46.569Z,0.40
2022-08-20T18:25:23.513Z,0.63
2022-08-20T18:30:26.697Z,0.33
2022-08-20T18:35:45.265Z,0.60
2022-08-20T18:40:53.125Z,0.10
2022-08-20T18:46:28.717Z,0.13
2022-08-20T18:51:48.698Z,1.33
2022-08-20T18:57:06.919Z,0.23
2022-08-20T19:02:32.613Z,0.60
2022-08-20T19:07:45.833Z,1.23
2022-08-20T19:13:15.874Z,0.97
2022-08-20T19:18:26.384Z,1.27
2022-08-20T19:23:38.813Z,0.67
2022-08-20T19:28:47.795Z,0.10
2022-08-20T19:34:02.132Z,0.00
2022-08-20T19:39:15.207Z,0.60
2022-08-20T19:44:25.401Z,0.10
2022-08-20T19:49:36.375Z,0.50
2022-08-20T19:54:53.464Z,0.10
2022-08-20T19:59:59.704Z,0.50
2022-08-20T20:05:06.855Z,0.40
2022-08-20T20:10:21.952Z,0.20
2022-08-20T20:15:24.879Z,0.67
2022-08-20T20:20:33.521Z,0.60
2022-08-20T20:25:38.523Z,0.30
2022-08-20T20:30:41.809Z,0.20
2022-08-20T20:35:45.899Z,0.17
2022-08-20T20:40:54.106Z,0.30
2022-08-20T20:46:04.532Z,0.20
2022-08-20T20:51:21.877Z,0.27
2022-08-20T20:56:32.112Z,0.20
2022-08-20T21:01:48.720Z,0.20
2022-08-20T21:06:55.688Z,0.37
2022-08-20T21:11:58.044Z,0.33
2022-08-20T21:17:02.556Z,0.83
2022-08-20T21:22:05.028Z,0.67
2022-08-20T21:27:12.748Z,0.17
2022-08-20T21:32:17.489Z,0.23
2022-08-20T21:37:19.851Z,0.67
2022-08-20T21:42:29.085Z,0.00
2022-08-20T21:47:32.121Z,0.33
2022-08-20T21:52:35.916Z,0.20
2022-08-20T21:57:38.365Z,1.50
2022-08-20T22:02:40.832Z,0.07
2022-08-20T22:07:43.483Z,0.37
2022-08-20T22:12:46.068Z,0.40
2022-08-20T22:17:48.545Z,0.10
2022-08-20T22:22:50.972Z,0.17
2022-08-20T22:27:53.318Z,0.47
2022-08-20T22:33:18.211Z,0.73
2022-08-20T22:38:21.432Z,0.07
2022-08-20T22:43:23.893Z,0.40
2022-08-20T22:48:27.500Z,0.73
2022-08-20T22:53:29.963Z,0.30
2022-08-20T22:58:32.349Z,0.10
2022-08-20T23:03:39.423Z,0.10
2022-08-20T23:08:42.910Z,0.30
2022-08-20T23:13:45.308Z,0.20
2022-08-20T23:18:47.691Z,0.53
2022-08-20T23:23:50.731Z,0.90
2022-08-20T23:28:53.167Z,0.37
2022-08-20T23:33:55.544Z,0.20
2022-08-20T23:38:57.961Z,0.77
2022-08-20T23:44:00.489Z,0.90
2022-08-20T23:49:02.874Z,0.10
2022-08-20T23:54:05.341Z,1.00
2022-08-20T23:59:09.033Z,0.07
